Time;durP1;ratioP1;P1;durP2;ratioP2;P2;SDS_P1;SDS_P2;PMS_P1;PMS_P2;Temp;Humidity;BMP_temperature;BMP_pressure;BME280_temperature;BME280_humidity;BME280_pressure;Samples;Min_cycle;Max_cycle;Signal;HPM_P1;HPM_P2
2023/07/14 00:00:32;;;;;;;11.60;5.87;;;;;;;;;;5050625;28;20483;-48
2023/07/14 00:02:59;;;;;;;9.90;5.50;;;;;;;;;;5050854;28;20449;-49
2023/07/14 00:05:28;;;;;;;15.37;5.70;;;;;;;;;;5050836;28;20379;-48
2023/07/14 00:07:55;;;;;;;11.90;5.00;;;;;;;;;;5050773;28;20494;-49
2023/07/14 00:10:26;;;;;;;12.10;5.40;;;;;;;;;;5051051;28;20432;-49
2023/07/14 00:12:52;;;;;;;11.53;5.97;;;;;;;;;;5050863;28;20421;-49
2023/07/14 00:15:20;;;;;;;6.60;4.10;;;;;;;;;;5050300;28;20926;-49
2023/07/14 00:17:47;;;;;;;14.40;5.50;;;;;;;;;;5053404;28;20434;-49
2023/07/14 00:20:24;;;;;;;15.37;5.60;;;;;;;;;;5054335;28;20454;-51
2023/07/14 00:22:53;;;;;;;10.33;5.47;;;;;;;;;;5054235;28;20448;-48
2023/07/14 00:25:20;;;;;;;17.60;5.73;;;;;;;;;;5054311;28;20405;-48
2023/07/14 00:27:46;;;;;;;17.73;5.87;;;;;;;;;;5054234;28;20827;-49
2023/07/14 00:30:15;;;;;;;8.83;5.47;;;;;;;;;;5053977;28;20405;-53
2023/07/14 00:32:41;;;;;;;14.17;5.83;;;;;;;;;;5054274;28;20411;-48
2023/07/14 00:35:36;;;;;;;13.50;5.47;;;;;;;;;;5053979;28;20971;-49
2023/07/14 00:38:02;;;;;;;17.73;5.63;;;;;;;;;;5032148;28;20442;-48
2023/07/14 00:40:47;;;;;;;6.57;5.50;;;;;;;;;;5053835;28;20391;-50
2023/07/14 00:43:18;;;;;;;18.57;6.23;;;;;;;;;;5054360;28;20522;-49
2023/07/14 00:45:44;;;;;;;22.07;6.23;;;;;;;;;;5053715;28;20444;-49
2023/07/14 00:48:12;;;;;;;16.17;7.07;;;;;;;;;;5053815;28;20438;-52
2023/07/14 00:50:53;;;;;;;18.80;6.37;;;;;;;;;;5045699;28;20407;-51
2023/07/14 00:53:23;;;;;;;13.30;6.27;;;;;;;;;;5054098;28;20467;-50
2023/07/14 00:55:57;;;;;;;7.77;5.73;;;;;;;;;;5053732;28;20410;-52
2023/07/14 00:58:24;;;;;;;18.07;6.10;;;;;;;;;;5053688;28;20444;-50
2023/07/14 01:01:09;;;;;;;7.57;5.20;;;;;;;;;;5042994;28;20418;-48
2023/07/14 01:03:39;;;;;;;12.57;6.53;;;;;;;;;;5052633;28;20424;-52
2023/07/14 01:06:06;;;;;;;14.70;6.70;;;;;;;;;;5052949;28;20815;-48
2023/07/14 01:08:33;;;;;;;10.03;5.53;;;;;;;;;;5052870;28;20448;-50
2023/07/14 01:10:59;;;;;;;11.83;6.13;;;;;;;;;;5053159;28;20416;-49
2023/07/14 01:13:25;;;;;;;14.77;5.97;;;;;;;;;;5053295;28;20414;-49
2023/07/14 01:15:52;;;;;;;10.73;5.23;;;;;;;;;;5053369;28;20432;-48
2023/07/14 01:18:19;;;;;;;9.77;5.47;;;;;;;;;;5053695;28;20475;-48
2023/07/14 01:20:45;;;;;;;12.27;6.27;;;;;;;;;;5053103;28;20421;-49
2023/07/14 01:23:17;;;;;;;6.53;5.40;;;;;;;;;;5053536;28;20460;-48
2023/07/14 01:25:51;;;;;;;9.87;5.23;;;;;;;;;;5047239;28;20774;-47
2023/07/14 01:28:19;;;;;;;7.60;5.93;;;;;;;;;;5052235;28;20426;-48
2023/07/14 01:30:45;;;;;;;5.97;5.30;;;;;;;;;;5052833;28;20408;-48
2023/07/14 01:33:16;;;;;;;6.97;5.60;;;;;;;;;;5052960;28;20415;-48
2023/07/14 01:35:45;;;;;;;5.97;5.33;;;;;;;;;;5045193;28;20380;-49
2023/07/14 01:38:11;;;;;;;10.27;5.10;;;;;;;;;;5052972;28;20394;-48
2023/07/14 01:40:37;;;;;;;5.23;4.63;;;;;;;;;;5052995;28;20492;-49
2023/07/14 01:43:04;;;;;;;7.90;4.83;;;;;;;;;;5052758;28;20428;-50
2023/07/14 01:45:32;;;;;;;5.90;4.90;;;;;;;;;;5052583;28;20826;-49
2023/07/14 01:48:01;;;;;;;6.10;4.70;;;;;;;;;;5052602;28;20800;-48
2023/07/14 01:50:30;;;;;;;7.73;4.50;;;;;;;;;;5052416;28;20919;-48
2023/07/14 01:53:00;;;;;;;6.13;3.90;;;;;;;;;;5052724;28;20412;-50
2023/07/14 01:55:32;;;;;;;7.37;3.70;;;;;;;;;;5052518;28;20421;-49
2023/07/14 01:57:59;;;;;;;5.73;4.37;;;;;;;;;;5052912;28;20433;-49
2023/07/14 02:00:26;;;;;;;4.73;4.33;;;;;;;;;;5052296;28;20762;-50
2023/07/14 02:02:53;;;;;;;5.37;4.10;;;;;;;;;;5052365;28;20468;-48
2023/07/14 02:05:27;;;;;;;6.80;4.27;;;;;;;;;;5052335;28;20457;-48
2023/07/14 02:07:55;;;;;;;10.30;4.20;;;;;;;;;;5052294;28;20449;-52
2023/07/14 02:10:21;;;;;;;5.33;4.03;;;;;;;;;;5052040;28;20980;-48
2023/07/14 02:12:49;;;;;;;5.37;4.03;;;;;;;;;;5052323;28;20414;-52
2023/07/14 02:15:21;;;;;;;6.70;4.30;;;;;;;;;;5052175;28;20904;-48
2023/07/14 02:17:47;;;;;;;5.90;4.00;;;;;;;;;;5052221;28;20484;-48
2023/07/14 02:20:22;;;;;;;6.67;4.20;;;;;;;;;;5052002;28;20431;-48
2023/07/14 02:22:49;;;;;;;5.00;4.50;;;;;;;;;;5045444;28;21118;-48
2023/07/14 02:25:16;;;;;;;7.30;4.33;;;;;;;;;;5051917;28;20804;-52
2023/07/14 02:27:41;;;;;;;9.03;4.30;;;;;;;;;;5051775;28;20494;-50
2023/07/14 02:30:13;;;;;;;6.37;4.23;;;;;;;;;;5051812;28;20993;-50
2023/07/14 02:32:40;;;;;;;8.50;4.13;;;;;;;;;;5043990;28;20408;-48
2023/07/14 02:35:12;;;;;;;4.10;3.70;;;;;;;;;;5051850;28;20420;-48
2023/07/14 02:38:05;;;;;;;5.03;3.57;;;;;;;;;;5043695;28;20505;-48
2023/07/14 02:40:51;;;;;;;3.90;3.60;;;;;;;;;;5051851;28;20893;-48
2023/07/14 02:43:19;;;;;;;4.60;4.00;;;;;;;;;;5051647;28;20803;-48
2023/07/14 02:46:00;;;;;;;5.73;4.40;;;;;;;;;;5049292;28;20426;-48
2023/07/14 02:48:35;;;;;;;12.03;4.20;;;;;;;;;;5056690;28;20947;-49
2023/07/14 02:51:02;;;;;;;5.43;4.10;;;;;;;;;;5051594;28;20403;-49
2023/07/14 02:53:28;;;;;;;9.53;3.80;;;;;;;;;;5051602;28;20413;-48
2023/07/14 02:55:54;;;;;;;10.87;4.80;;;;;;;;;;5051864;28;20413;-49
2023/07/14 02:58:20;;;;;;;14.93;4.60;;;;;;;;;;5051363;28;20430;-48
2023/07/14 03:00:46;;;;;;;8.63;4.20;;;;;;;;;;5051412;28;20384;-49
2023/07/14 03:03:12;;;;;;;10.27;4.30;;;;;;;;;;5051204;28;20457;-50
2023/07/14 03:05:38;;;;;;;9.77;4.10;;;;;;;;;;5043284;28;20382;-51
2023/07/14 03:08:07;;;;;;;10.10;4.93;;;;;;;;;;5051369;28;20450;-51
2023/07/14 03:10:33;;;;;;;12.33;4.00;;;;;;;;;;5051278;28;20410;-48
2023/07/14 03:13:00;;;;;;;5.57;4.93;;;;;;;;;;5051757;28;20413;-49
2023/07/14 03:15:26;;;;;;;6.20;4.63;;;;;;;;;;5051389;28;20483;-48
2023/07/14 03:17:52;;;;;;;4.53;4.03;;;;;;;;;;5051241;28;20430;-48
2023/07/14 03:20:18;;;;;;;4.47;4.07;;;;;;;;;;5051082;28;20435;-49
2023/07/14 03:22:44;;;;;;;5.50;4.00;;;;;;;;;;5051178;28;20466;-48
2023/07/14 03:25:10;;;;;;;5.20;4.67;;;;;;;;;;5051218;28;20488;-49
2023/07/14 03:27:37;;;;;;;6.67;4.70;;;;;;;;;;5051034;28;20833;-49
2023/07/14 03:30:03;;;;;;;5.83;4.50;;;;;;;;;;5050934;28;20408;-49
2023/07/14 03:32:29;;;;;;;5.90;5.00;;;;;;;;;;5051101;28;20498;-48
2023/07/14 03:34:55;;;;;;;8.97;5.33;;;;;;;;;;5051177;28;20491;-48
2023/07/14 03:37:21;;;;;;;7.30;5.20;;;;;;;;;;5051059;28;20386;-48
2023/07/14 03:39:47;;;;;;;12.60;4.97;;;;;;;;;;5054748;28;20404;-50
2023/07/14 03:42:14;;;;;;;5.13;4.63;;;;;;;;;;5054233;28;20435;-48
2023/07/14 03:44:40;;;;;;;5.70;5.20;;;;;;;;;;5050934;28;20429;-49
2023/07/14 03:47:06;;;;;;;9.37;4.87;;;;;;;;;;5051292;28;20957;-52
2023/07/14 03:49:31;;;;;;;7.30;4.63;;;;;;;;;;5050955;28;20500;-48
2023/07/14 03:51:57;;;;;;;4.77;4.37;;;;;;;;;;5052366;28;20544;-48
2023/07/14 03:54:23;;;;;;;6.90;4.67;;;;;;;;;;5054905;28;20773;-48
2023/07/14 03:56:52;;;;;;;7.50;4.17;;;;;;;;;;5054939;28;20414;-48
2023/07/14 03:59:18;;;;;;;5.43;4.23;;;;;;;;;;5054593;28;20437;-49
2023/07/14 04:01:43;;;;;;;4.63;4.13;;;;;;;;;;5054727;28;20560;-49
2023/07/14 04:04:09;;;;;;;6.67;4.30;;;;;;;;;;5054665;28;20409;-50
2023/07/14 04:06:35;;;;;;;9.83;4.23;;;;;;;;;;5054572;28;20421;-52
2023/07/14 04:09:02;;;;;;;6.10;4.17;;;;;;;;;;5054641;28;20502;-48
2023/07/14 04:11:28;;;;;;;7.20;3.20;;;;;;;;;;5054345;28;21044;-51
2023/07/14 04:13:53;;;;;;;7.30;4.57;;;;;;;;;;5054404;28;20374;-48
2023/07/14 04:16:23;;;;;;;8.10;4.30;;;;;;;;;;5054485;28;20877;-49
2023/07/14 04:18:49;;;;;;;5.30;4.37;;;;;;;;;;5054649;28;20415;-49
2023/07/14 04:21:15;;;;;;;5.77;4.30;;;;;;;;;;5054317;28;20494;-49
2023/07/14 04:23:41;;;;;;;7.00;4.00;;;;;;;;;;5054314;28;20500;-51
2023/07/14 04:26:08;;;;;;;4.17;3.77;;;;;;;;;;5054195;28;20405;-52
2023/07/14 04:28:35;;;;;;;8.03;4.10;;;;;;;;;;5053956;28;20422;-49
2023/07/14 04:31:01;;;;;;;11.10;4.60;;;;;;;;;;5054234;28;20405;-47
2023/07/14 04:33:27;;;;;;;8.93;4.70;;;;;;;;;;5054081;28;20459;-48
2023/07/14 04:35:54;;;;;;;7.60;4.37;;;;;;;;;;5054090;28;20415;-48
2023/07/14 04:38:21;;;;;;;9.27;7.20;;;;;;;;;;5053906;28;20435;-53
2023/07/14 04:40:47;;;;;;;10.23;4.63;;;;;;;;;;5053715;28;20494;-49
2023/07/14 04:43:13;;;;;;;5.17;4.03;;;;;;;;;;5053860;28;20555;-49
2023/07/14 04:45:43;;;;;;;6.40;4.53;;;;;;;;;;5053723;28;20401;-51
2023/07/14 04:48:15;;;;;;;4.20;3.63;;;;;;;;;;5053885;28;20396;-48
2023/07/14 04:50:41;;;;;;;4.03;3.63;;;;;;;;;;5046028;28;20493;-47
2023/07/14 04:53:07;;;;;;;15.47;3.80;;;;;;;;;;5053869;28;20868;-48
2023/07/14 04:55:37;;;;;;;6.20;3.47;;;;;;;;;;5053641;28;20505;-48
2023/07/14 04:58:03;;;;;;;5.23;4.17;;;;;;;;;;5053804;28;20404;-48
2023/07/14 05:00:29;;;;;;;9.30;3.87;;;;;;;;;;5053525;28;20419;-48
2023/07/14 05:02:56;;;;;;;8.17;4.33;;;;;;;;;;5052692;28;20458;-51
2023/07/14 05:05:23;;;;;;;10.10;4.40;;;;;;;;;;5053396;28;20748;-48
2023/07/14 05:07:49;;;;;;;10.17;4.67;;;;;;;;;;5053165;28;20481;-50
2023/07/14 05:10:19;;;;;;;5.80;4.23;;;;;;;;;;5052447;28;20392;-50
2023/07/14 05:12:46;;;;;;;5.17;4.83;;;;;;;;;;5053162;28;20400;-48
2023/07/14 05:15:12;;;;;;;11.30;4.50;;;;;;;;;;5052922;28;20760;-53
2023/07/14 05:17:39;;;;;;;9.60;4.00;;;;;;;;;;5044783;28;20412;-49
2023/07/14 05:20:06;;;;;;;4.20;3.90;;;;;;;;;;5052769;28;20903;-48
2023/07/14 05:22:32;;;;;;;11.13;4.67;;;;;;;;;;5052541;28;20485;-52
2023/07/14 05:24:58;;;;;;;7.17;3.83;;;;;;;;;;5052695;28;20372;-52
2023/07/14 05:27:25;;;;;;;5.90;4.50;;;;;;;;;;5052717;28;20785;-48
2023/07/14 05:29:53;;;;;;;6.70;3.87;;;;;;;;;;5052618;28;20441;-51
2023/07/14 05:32:19;;;;;;;4.13;3.70;;;;;;;;;;5052491;28;20475;-49
2023/07/14 05:34:45;;;;;;;5.93;4.00;;;;;;;;;;5052542;28;20480;-49
2023/07/14 05:37:11;;;;;;;7.60;4.20;;;;;;;;;;5052505;28;20391;-51
2023/07/14 05:39:37;;;;;;;4.20;3.80;;;;;;;;;;5052197;28;20520;-51
2023/07/14 05:42:03;;;;;;;5.53;4.40;;;;;;;;;;5052959;28;20474;-48
2023/07/14 05:44:30;;;;;;;5.40;3.70;;;;;;;;;;5052779;28;20766;-48
2023/07/14 05:46:56;;;;;;;5.57;4.10;;;;;;;;;;5052659;28;20395;-49
2023/07/14 05:49:22;;;;;;;4.23;3.90;;;;;;;;;;5052575;28;20520;-51
2023/07/14 05:51:48;;;;;;;5.33;3.50;;;;;;;;;;5052429;28;20784;-48
2023/07/14 05:54:14;;;;;;;3.83;3.53;;;;;;;;;;5052583;28;20425;-48
2023/07/14 05:56:40;;;;;;;7.57;3.60;;;;;;;;;;5052673;28;20394;-48
2023/07/14 05:59:07;;;;;;;4.33;3.43;;;;;;;;;;5053245;28;20520;-53
2023/07/14 06:01:33;;;;;;;4.70;3.73;;;;;;;;;;5040763;28;20457;-54
2023/07/14 06:03:59;;;;;;;4.83;4.10;;;;;;;;;;5054586;28;20391;-53
2023/07/14 06:06:26;;;;;;;5.53;4.43;;;;;;;;;;5053672;28;20458;-52
2023/07/14 06:08:52;;;;;;;4.67;3.53;;;;;;;;;;5052312;28;20430;-53
2023/07/14 06:11:18;;;;;;;5.67;4.33;;;;;;;;;;5052064;28;20438;-53
2023/07/14 06:13:44;;;;;;;3.90;3.50;;;;;;;;;;5052446;28;20437;-54
2023/07/14 06:16:10;;;;;;;8.93;4.50;;;;;;;;;;5052018;28;20386;-53
2023/07/14 06:18:36;;;;;;;6.43;4.43;;;;;;;;;;5052107;28;20419;-54
2023/07/14 06:21:02;;;;;;;9.03;4.47;;;;;;;;;;5055497;28;20403;-54
2023/07/14 06:23:28;;;;;;;4.40;4.03;;;;;;;;;;5052040;28;20444;-53
2023/07/14 06:25:54;;;;;;;5.90;4.63;;;;;;;;;;5054791;28;20504;-52
2023/07/14 06:28:21;;;;;;;9.47;4.13;;;;;;;;;;5054382;28;20407;-53
2023/07/14 06:30:47;;;;;;;5.37;4.47;;;;;;;;;;5051902;28;20406;-52
2023/07/14 06:33:13;;;;;;;5.07;4.33;;;;;;;;;;5037412;28;20408;-52
2023/07/14 06:35:41;;;;;;;6.70;4.07;;;;;;;;;;5051807;28;20430;-52
2023/07/14 06:38:07;;;;;;;3.93;3.63;;;;;;;;;;5051895;28;20396;-52
2023/07/14 06:40:32;;;;;;;7.47;3.70;;;;;;;;;;5051829;28;20387;-54
2023/07/14 06:43:00;;;;;;;6.23;4.10;;;;;;;;;;5050678;28;20465;-54
2023/07/14 06:45:27;;;;;;;6.83;3.53;;;;;;;;;;5050247;28;20880;-53
2023/07/14 06:47:53;;;;;;;4.97;3.50;;;;;;;;;;5049889;28;20504;-52
2023/07/14 06:50:20;;;;;;;4.73;4.27;;;;;;;;;;5051719;28;20419;-53
2023/07/14 06:52:46;;;;;;;4.20;3.70;;;;;;;;;;5051262;28;20774;-53
2023/07/14 06:55:12;;;;;;;8.30;3.63;;;;;;;;;;5051604;28;20951;-53
2023/07/14 06:57:38;;;;;;;3.70;3.30;;;;;;;;;;5059098;28;20486;-53
2023/07/14 07:00:09;;;;;;;4.10;3.67;;;;;;;;;;5051533;28;20769;-54
2023/07/14 07:02:35;;;;;;;4.93;3.83;;;;;;;;;;5051885;28;20476;-51
2023/07/14 07:05:04;;;;;;;6.83;3.47;;;;;;;;;;5051851;28;20426;-52
2023/07/14 07:07:30;;;;;;;6.43;4.00;;;;;;;;;;5051162;28;20412;-53
2023/07/14 07:09:56;;;;;;;4.87;3.10;;;;;;;;;;5051289;28;20826;-54
2023/07/14 07:12:22;;;;;;;4.20;3.37;;;;;;;;;;5050993;28;20421;-54
2023/07/14 07:14:49;;;;;;;6.40;4.10;;;;;;;;;;5051365;28;20509;-53
2023/07/14 07:17:15;;;;;;;3.83;3.53;;;;;;;;;;5048678;28;20423;-53
2023/07/14 07:19:41;;;;;;;3.63;2.73;;;;;;;;;;5051025;28;20439;-52
2023/07/14 07:22:08;;;;;;;5.43;2.87;;;;;;;;;;5051179;28;20808;-53
2023/07/14 07:24:34;;;;;;;6.03;3.20;;;;;;;;;;5051208;28;20381;-53
2023/07/14 07:27:01;;;;;;;3.33;3.10;;;;;;;;;;5055695;28;20399;-54
2023/07/14 07:29:27;;;;;;;7.80;3.37;;;;;;;;;;5055273;28;20552;-51
2023/07/14 07:31:53;;;;;;;3.83;3.20;;;;;;;;;;5055055;28;20703;-54
2023/07/14 07:34:19;;;;;;;5.60;3.57;;;;;;;;;;5055149;28;20431;-54
2023/07/14 07:36:45;;;;;;;3.37;3.07;;;;;;;;;;5055375;28;20423;-54
2023/07/14 07:39:11;;;;;;;4.73;3.07;;;;;;;;;;5055214;28;20415;-54
2023/07/14 07:41:37;;;;;;;3.27;2.97;;;;;;;;;;5054942;28;20470;-54
2023/07/14 07:44:04;;;;;;;6.40;2.80;;;;;;;;;;5055114;28;20381;-54
2023/07/14 07:46:32;;;;;;;5.00;3.00;;;;;;;;;;5055025;28;20440;-52
2023/07/14 07:48:58;;;;;;;4.83;3.13;;;;;;;;;;5055032;28;20432;-53
2023/07/14 07:51:25;;;;;;;6.37;3.40;;;;;;;;;;5054749;28;20416;-52
2023/07/14 07:53:51;;;;;;;3.63;3.33;;;;;;;;;;5054880;28;20459;-52
2023/07/14 07:56:18;;;;;;;6.90;2.80;;;;;;;;;;5054988;28;20389;-51
2023/07/14 07:58:44;;;;;;;6.70;2.90;;;;;;;;;;5054871;28;20439;-53
2023/07/14 08:01:15;;;;;;;3.73;3.13;;;;;;;;;;5054578;28;20409;-53
2023/07/14 08:03:41;;;;;;;7.20;3.43;;;;;;;;;;5046844;28;20434;-53
2023/07/14 08:06:07;;;;;;;4.77;2.90;;;;;;;;;;5054630;28;20726;-54
2023/07/14 08:08:33;;;;;;;4.57;2.60;;;;;;;;;;5054805;28;20850;-52
2023/07/14 08:11:00;;;;;;;3.70;3.40;;;;;;;;;;5058142;28;20408;-53
2023/07/14 08:13:28;;;;;;;5.50;3.10;;;;;;;;;;5056174;28;20448;-53
2023/07/14 08:15:54;;;;;;;3.00;2.70;;;;;;;;;;5054584;28;20424;-53
2023/07/14 08:18:21;;;;;;;3.20;2.83;;;;;;;;;;5054522;28;20407;-53
2023/07/14 08:20:48;;;;;;;3.60;3.00;;;;;;;;;;5054574;28;20420;-54
2023/07/14 08:23:15;;;;;;;3.87;2.73;;;;;;;;;;5054344;28;20547;-53
2023/07/14 08:25:41;;;;;;;5.63;3.03;;;;;;;;;;5054337;28;20491;-54
2023/07/14 08:28:07;;;;;;;4.53;3.13;;;;;;;;;;5054171;28;20861;-53
2023/07/14 08:30:33;;;;;;;4.07;2.77;;;;;;;;;;5053880;28;20425;-53
2023/07/14 08:32:59;;;;;;;4.70;2.50;;;;;;;;;;5054165;28;20410;-54
2023/07/14 08:35:25;;;;;;;5.23;2.80;;;;;;;;;;5054066;28;20410;-51
2023/07/14 08:37:51;;;;;;;4.60;2.80;;;;;;;;;;5053908;28;20800;-51
2023/07/14 08:40:22;;;;;;;3.10;2.40;;;;;;;;;;5053800;28;20902;-53
2023/07/14 08:43:03;;;;;;;2.47;2.27;;;;;;;;;;5053950;28;20459;-54
2023/07/14 08:45:41;;;;;;;3.17;2.87;;;;;;;;;;5053845;28;20449;-54
2023/07/14 08:48:07;;;;;;;3.13;2.40;;;;;;;;;;5054332;28;20436;-54
2023/07/14 08:50:34;;;;;;;2.70;2.43;;;;;;;;;;5053660;28;20447;-54
2023/07/14 08:53:02;;;;;;;3.10;2.80;;;;;;;;;;5053802;28;20413;-54
2023/07/14 08:55:30;;;;;;;3.13;2.23;;;;;;;;;;5053721;28;20409;-53
2023/07/14 08:58:14;;;;;;;3.20;2.90;;;;;;;;;;5053886;28;20448;-54
2023/07/14 09:00:49;;;;;;;3.03;2.80;;;;;;;;;;5053577;28;20946;-55
2023/07/14 09:03:37;;;;;;;4.27;2.50;;;;;;;;;;5050617;28;20467;-53
2023/07/14 09:06:11;;;;;;;5.23;2.67;;;;;;;;;;5049005;28;20933;-54
2023/07/14 09:08:37;;;;;;;4.03;2.33;;;;;;;;;;5053547;28;20468;-54
2023/07/14 09:11:17;;;;;;;2.97;2.63;;;;;;;;;;5053376;28;20917;-54
2023/07/14 09:13:47;;;;;;;3.53;2.67;;;;;;;;;;5048167;28;20409;-55
2023/07/14 09:16:14;;;;;;;4.37;2.33;;;;;;;;;;5053304;28;20980;-54
2023/07/14 09:19:03;;;;;;;5.40;2.50;;;;;;;;;;5053280;28;21006;-54
2023/07/14 09:21:29;;;;;;;4.70;2.57;;;;;;;;;;5043977;28;20512;-54
2023/07/14 09:24:04;;;;;;;7.30;3.13;;;;;;;;;;5053172;28;20504;-53
2023/07/14 09:26:30;;;;;;;2.60;2.37;;;;;;;;;;5053176;28;20598;-54
2023/07/14 09:28:57;;;;;;;2.87;2.60;;;;;;;;;;5053336;28;20508;-54
2023/07/14 09:31:37;;;;;;;8.70;3.50;;;;;;;;;;5051814;28;20420;-54
2023/07/14 09:34:04;;;;;;;2.40;2.23;;;;;;;;;;5033187;28;20402;-54
2023/07/14 09:36:31;;;;;;;3.10;2.80;;;;;;;;;;5050822;28;20413;-52
2023/07/14 09:38:59;;;;;;;2.90;2.53;;;;;;;;;;5052760;28;20520;-54
2023/07/14 09:41:28;;;;;;;4.10;2.30;;;;;;;;;;5052701;28;20411;-53
2023/07/14 09:43:58;;;;;;;3.93;3.00;;;;;;;;;;5052903;28;20505;-54
2023/07/14 09:46:24;;;;;;;3.00;2.80;;;;;;;;;;5052905;28;20412;-54
2023/07/14 09:48:52;;;;;;;3.60;2.50;;;;;;;;;;5052434;28;20440;-54
2023/07/14 09:51:20;;;;;;;3.83;2.77;;;;;;;;;;5052312;28;20763;-55
2023/07/14 09:54:06;;;;;;;11.13;2.50;;;;;;;;;;5054598;28;20511;-54
2023/07/14 09:56:33;;;;;;;5.20;2.77;;;;;;;;;;5032918;28;20401;-54
2023/07/14 09:59:01;;;;;;;2.90;2.67;;;;;;;;;;5051003;28;20798;-54
2023/07/14 10:01:29;;;;;;;2.83;2.30;;;;;;;;;;5050361;28;20419;-55
2023/07/14 10:03:58;;;;;;;4.63;2.60;;;;;;;;;;5050798;28;20470;-53
2023/07/14 10:06:26;;;;;;;3.90;2.83;;;;;;;;;;5051297;28;20479;-54
2023/07/14 10:08:56;;;;;;;3.20;2.40;;;;;;;;;;5050520;28;20810;-53
2023/07/14 10:11:27;;;;;;;2.70;2.50;;;;;;;;;;5051567;28;20439;-54
2023/07/14 10:13:57;;;;;;;4.37;2.33;;;;;;;;;;5052248;28;20474;-51
2023/07/14 10:16:24;;;;;;;2.63;2.17;;;;;;;;;;5052187;28;20432;-52
2023/07/14 10:18:55;;;;;;;3.10;2.90;;;;;;;;;;5051104;28;20428;-54
2023/07/14 10:21:28;;;;;;;2.70;2.47;;;;;;;;;;5057839;28;20408;-54
2023/07/14 10:23:57;;;;;;;3.30;2.97;;;;;;;;;;5052021;28;20440;-54
2023/07/14 10:26:24;;;;;;;2.67;2.40;;;;;;;;;;5052180;28;20409;-54
2023/07/14 10:28:51;;;;;;;5.10;2.63;;;;;;;;;;5051901;28;20429;-55
2023/07/14 10:31:24;;;;;;;7.50;2.37;;;;;;;;;;5049996;28;20459;-54
2023/07/14 10:34:02;;;;;;;5.97;2.63;;;;;;;;;;5037231;28;20822;-54
2023/07/14 10:36:32;;;;;;;2.60;2.40;;;;;;;;;;5051190;28;20421;-54
2023/07/14 10:39:00;;;;;;;4.90;2.60;;;;;;;;;;5050475;28;20447;-54
2023/07/14 10:41:26;;;;;;;3.50;2.70;;;;;;;;;;5050587;28;20492;-54
2023/07/14 10:44:01;;;;;;;2.60;2.40;;;;;;;;;;5051401;28;20513;-53
2023/07/14 10:46:48;;;;;;;3.80;2.57;;;;;;;;;;5051744;28;20405;-54
2023/07/14 10:49:20;;;;;;;3.03;2.80;;;;;;;;;;5051323;28;20500;-53
2023/07/14 10:51:57;;;;;;;5.03;2.67;;;;;;;;;;5051386;28;20413;-53
2023/07/14 10:54:39;;;;;;;2.77;2.47;;;;;;;;;;5051621;28;20417;-53
2023/07/14 10:57:13;;;;;;;5.90;2.77;;;;;;;;;;5051677;28;20432;-53
2023/07/14 10:59:48;;;;;;;3.83;2.30;;;;;;;;;;5043409;28;20460;-50
2023/07/14 11:02:19;;;;;;;4.00;3.37;;;;;;;;;;5050388;28;20459;-54
2023/07/14 11:04:47;;;;;;;2.80;2.30;;;;;;;;;;5051412;28;20413;-52
2023/07/14 11:07:22;;;;;;;3.43;2.90;;;;;;;;;;5051396;28;20528;-54
2023/07/14 11:09:48;;;;;;;8.50;2.70;;;;;;;;;;5051239;28;20427;-55
2023/07/14 11:12:36;;;;;;;4.20;2.57;;;;;;;;;;5051927;28;20401;-54
2023/07/14 11:15:12;;;;;;;2.47;2.27;;;;;;;;;;5046606;28;20393;-52
2023/07/14 11:17:41;;;;;;;2.93;2.60;;;;;;;;;;5043394;28;20489;-54
2023/07/14 11:20:17;;;;;;;6.30;2.90;;;;;;;;;;5051349;28;20412;-54
2023/07/14 11:23:03;;;;;;;3.30;3.00;;;;;;;;;;5047256;28;20452;-53
2023/07/14 11:25:41;;;;;;;2.53;2.33;;;;;;;;;;5051256;28;20488;-54
2023/07/14 11:28:11;;;;;;;2.40;2.20;;;;;;;;;;5051263;28;20460;-55
2023/07/14 11:30:39;;;;;;;3.37;2.87;;;;;;;;;;5050950;28;20406;-55
2023/07/14 11:33:24;;;;;;;3.27;2.63;;;;;;;;;;5051323;28;20420;-54
2023/07/14 11:36:02;;;;;;;2.83;2.60;;;;;;;;;;5044686;28;20462;-54
2023/07/14 11:38:53;;;;;;;2.60;2.40;;;;;;;;;;5051279;28;20437;-54
2023/07/14 11:41:19;;;;;;;5.47;3.17;;;;;;;;;;5050954;28;20415;-52
2023/07/14 11:43:46;;;;;;;3.30;2.97;;;;;;;;;;5051048;28;20547;-53
2023/07/14 11:46:19;;;;;;;2.60;2.40;;;;;;;;;;5053996;28;20415;-54
2023/07/14 11:48:52;;;;;;;5.07;2.83;;;;;;;;;;5043983;28;20425;-54
2023/07/14 11:51:19;;;;;;;4.80;3.43;;;;;;;;;;5048239;28;20488;-54
2023/07/14 11:54:04;;;;;;;4.07;2.80;;;;;;;;;;5051023;28;20417;-54
2023/07/14 11:56:31;;;;;;;3.80;3.20;;;;;;;;;;5050874;28;20421;-54
2023/07/14 11:59:15;;;;;;;5.30;2.90;;;;;;;;;;5051709;28;20432;-54
2023/07/14 12:01:46;;;;;;;3.50;3.20;;;;;;;;;;5050868;28;20412;-54
2023/07/14 12:04:31;;;;;;;6.13;4.77;;;;;;;;;;5050873;28;20500;-54
2023/07/14 12:07:13;;;;;;;3.27;2.50;;;;;;;;;;5045188;28;20428;-53
2023/07/14 12:09:57;;;;;;;5.33;2.50;;;;;;;;;;5042632;28;20421;-55
2023/07/14 12:12:23;;;;;;;3.53;3.10;;;;;;;;;;5051379;28;20441;-55
2023/07/14 12:14:50;;;;;;;4.93;3.13;;;;;;;;;;5054598;28;20433;-54
2023/07/14 12:17:36;;;;;;;3.03;2.83;;;;;;;;;;5054380;28;20749;-53
2023/07/14 12:20:25;;;;;;;4.13;2.70;;;;;;;;;;5040531;28;20914;-53
2023/07/14 12:23:06;;;;;;;8.30;3.40;;;;;;;;;;5037859;28;20465;-55
2023/07/14 12:25:38;;;;;;;5.30;2.90;;;;;;;;;;5054263;28;20823;-54
2023/07/14 12:28:04;;;;;;;4.80;3.77;;;;;;;;;;5054450;28;20421;-52
2023/07/14 12:30:31;;;;;;;5.67;2.67;;;;;;;;;;5054066;28;20409;-54
2023/07/14 12:33:01;;;;;;;4.20;2.70;;;;;;;;;;5054295;28;20811;-52
2023/07/14 12:35:30;;;;;;;5.70;3.20;;;;;;;;;;5054168;28;20421;-52
2023/07/14 12:38:06;;;;;;;2.73;2.60;;;;;;;;;;5054141;28;20528;-54
2023/07/14 12:40:32;;;;;;;7.00;3.30;;;;;;;;;;5054367;28;20500;-54
2023/07/14 12:42:59;;;;;;;6.43;2.83;;;;;;;;;;5053956;28;20563;-54
2023/07/14 12:45:25;;;;;;;2.97;2.73;;;;;;;;;;5053727;28;20919;-53
2023/07/14 12:47:54;;;;;;;4.80;2.70;;;;;;;;;;5053861;28;20512;-52
2023/07/14 12:50:21;;;;;;;4.43;2.73;;;;;;;;;;5053994;28;20767;-54
2023/07/14 12:52:50;;;;;;;8.33;3.20;;;;;;;;;;5053744;28;20417;-54
2023/07/14 12:55:23;;;;;;;4.43;3.20;;;;;;;;;;5053707;28;20504;-55
2023/07/14 12:57:49;;;;;;;5.17;2.43;;;;;;;;;;5053879;28;20919;-52
2023/07/14 13:00:20;;;;;;;3.13;2.93;;;;;;;;;;5053523;28;21075;-55
2023/07/14 13:02:47;;;;;;;4.60;3.27;;;;;;;;;;5053675;28;20457;-54
2023/07/14 13:05:13;;;;;;;4.97;2.77;;;;;;;;;;5053362;28;20496;-54
2023/07/14 13:07:42;;;;;;;7.83;3.60;;;;;;;;;;5053416;28;20429;-55
2023/07/14 13:10:11;;;;;;;4.23;2.47;;;;;;;;;;5053308;28;20405;-53
2023/07/14 13:12:38;;;;;;;2.70;2.53;;;;;;;;;;5053554;28;20402;-55
2023/07/14 13:15:04;;;;;;;3.73;3.10;;;;;;;;;;5053445;28;20421;-54
2023/07/14 13:17:30;;;;;;;4.10;2.60;;;;;;;;;;5053836;28;20477;-54
2023/07/14 13:20:07;;;;;;;3.30;3.00;;;;;;;;;;5053145;28;20427;-54
2023/07/14 13:22:36;;;;;;;5.00;2.77;;;;;;;;;;5057242;28;20468;-54
2023/07/14 13:25:04;;;;;;;3.80;3.03;;;;;;;;;;5052192;28;20420;-54
2023/07/14 13:27:31;;;;;;;5.00;2.83;;;;;;;;;;5053145;28;20420;-54
2023/07/14 13:30:01;;;;;;;3.17;2.87;;;;;;;;;;5053070;28;20903;-53
2023/07/14 13:32:27;;;;;;;3.13;2.83;;;;;;;;;;5053088;28;20401;-53
2023/07/14 13:34:59;;;;;;;3.10;2.90;;;;;;;;;;5047043;28;20416;-54
2023/07/14 13:37:26;;;;;;;2.90;2.70;;;;;;;;;;5053071;28;20424;-54
2023/07/14 13:40:01;;;;;;;4.37;2.63;;;;;;;;;;5052823;28;20433;-55
2023/07/14 13:42:36;;;;;;;6.67;3.10;;;;;;;;;;5052851;28;20564;-53
2023/07/14 13:45:07;;;;;;;3.27;2.97;;;;;;;;;;5052719;28;20405;-53
2023/07/14 13:47:44;;;;;;;3.03;2.77;;;;;;;;;;5052804;28;20405;-53
2023/07/14 13:50:10;;;;;;;4.37;2.80;;;;;;;;;;5052701;28;20503;-52
2023/07/14 13:52:36;;;;;;;3.90;2.80;;;;;;;;;;5052709;28;20930;-53
2023/07/14 13:55:13;;;;;;;3.43;2.80;;;;;;;;;;5052645;28;21118;-54
2023/07/14 13:57:39;;;;;;;5.53;3.03;;;;;;;;;;5044596;28;20409;-55
2023/07/14 14:00:10;;;;;;;6.93;2.73;;;;;;;;;;5052378;28;20757;-52
2023/07/14 14:02:35;;;;;;;4.10;3.63;;;;;;;;;;5052439;28;20460;-54
2023/07/14 14:05:03;;;;;;;7.93;3.00;;;;;;;;;;5052433;28;20776;-54
2023/07/14 14:07:30;;;;;;;3.40;2.70;;;;;;;;;;5052235;28;20224;-54
2023/07/14 14:09:56;;;;;;;3.80;2.80;;;;;;;;;;5052211;28;20488;-54
2023/07/14 14:12:22;;;;;;;3.13;2.67;;;;;;;;;;5052279;28;20497;-53
2023/07/14 14:14:48;;;;;;;2.90;2.70;;;;;;;;;;5052314;28;20481;-53
2023/07/14 14:17:21;;;;;;;4.63;3.47;;;;;;;;;;5052289;28;20412;-53
2023/07/14 14:19:47;;;;;;;3.07;2.70;;;;;;;;;;5045137;28;20453;-54
2023/07/14 14:22:13;;;;;;;5.03;3.23;;;;;;;;;;5051973;28;21060;-52
2023/07/14 14:24:40;;;;;;;3.83;2.70;;;;;;;;;;5052095;28;20401;-53
2023/07/14 14:27:07;;;;;;;6.87;2.50;;;;;;;;;;5052110;28;20755;-54
2023/07/14 14:29:33;;;;;;;6.73;3.13;;;;;;;;;;5051949;28;20433;-55
2023/07/14 14:32:00;;;;;;;5.37;3.40;;;;;;;;;;5051851;28;20511;-55
2023/07/14 14:34:28;;;;;;;3.33;2.87;;;;;;;;;;5051911;28;20433;-54
2023/07/14 14:36:54;;;;;;;7.10;3.17;;;;;;;;;;5051636;28;20402;-54
2023/07/14 14:39:21;;;;;;;3.40;3.10;;;;;;;;;;5051824;28;20503;-54
2023/07/14 14:41:48;;;;;;;3.37;2.70;;;;;;;;;;5051674;28;20512;-54
2023/07/14 14:44:18;;;;;;;10.13;2.93;;;;;;;;;;5051726;28;20405;-54
2023/07/14 14:46:44;;;;;;;7.80;2.97;;;;;;;;;;5054724;28;20413;-54
2023/07/14 14:49:15;;;;;;;2.53;2.13;;;;;;;;;;5051738;28;20840;-55
2023/07/14 14:51:41;;;;;;;4.53;2.70;;;;;;;;;;5043799;28;20463;-54